createdAt,value
2018-02-02T00:01:40.331Z,8.95
2018-02-02T00:04:06.810Z,9.38
2018-02-02T00:06:33.017Z,11.27
2018-02-02T00:08:59.175Z,8.40
2018-02-02T00:11:26.118Z,12.80
2018-02-02T00:13:53.179Z,9.80
2018-02-02T00:16:20.112Z,10.30
2018-02-02T00:18:46.991Z,10.35
2018-02-02T00:21:13.255Z,6.67
2018-02-02T00:23:40.296Z,8.17
2018-02-02T00:26:06.537Z,9.95
2018-02-02T00:28:32.714Z,8.88
2018-02-02T00:30:58.869Z,9.43
2018-02-02T00:33:25.071Z,9.02
2018-02-02T00:35:51.208Z,9.05
2018-02-02T00:38:18.201Z,11.60
2018-02-02T00:40:44.381Z,10.73
2018-02-02T00:43:10.554Z,11.32
2018-02-02T00:45:37.211Z,11.85
2018-02-02T00:48:04.498Z,10.75
2018-02-02T00:50:36.871Z,10.30
2018-02-02T00:53:03.059Z,8.70
2018-02-02T00:55:29.234Z,11.73
2018-02-02T00:57:55.435Z,12.50
2018-02-02T01:00:22.434Z,11.05
2018-02-02T01:02:48.700Z,13.15
2018-02-02T01:05:14.893Z,11.57
2018-02-02T01:07:41.111Z,11.38
2018-02-02T01:10:07.301Z,11.55
2018-02-02T01:12:34.231Z,14.68
2018-02-02T01:15:01.169Z,11.60
2018-02-02T01:17:28.070Z,12.37
2018-02-02T01:19:54.994Z,11.48
2018-02-02T01:22:21.145Z,16.20
2018-02-02T01:24:47.371Z,17.05
2018-02-02T01:27:13.557Z,13.62
2018-02-02T01:29:40.465Z,14.32
2018-02-02T01:32:07.281Z,14.30
2018-02-02T01:34:33.914Z,18.12
2018-02-02T01:46:51.727Z,12.90
2018-02-02T01:59:03.910Z,17.35
2018-02-02T02:01:30.069Z,10.73
2018-02-02T02:03:57.958Z,17.40
2018-02-02T02:06:24.990Z,15.25
2018-02-02T02:08:51.306Z,10.40
2018-02-02T02:11:17.691Z,12.95
2018-02-02T02:13:44.285Z,17.48
2018-02-02T02:16:10.595Z,16.05
2018-02-02T02:18:37.068Z,13.05
2018-02-02T02:21:04.355Z,12.63
2018-02-02T02:23:30.646Z,14.50
2018-02-02T02:25:57.696Z,12.20
2018-02-02T02:28:24.027Z,13.35
2018-02-02T02:30:50.349Z,12.82
2018-02-02T02:33:17.545Z,14.05
2018-02-02T02:35:43.915Z,11.32
2018-02-02T02:38:25.919Z,11.90
2018-02-02T02:40:52.992Z,15.95
2018-02-02T02:43:20.044Z,11.68
2018-02-02T02:45:47.117Z,14.95
2018-02-02T02:48:14.455Z,13.88
2018-02-02T02:50:41.506Z,14.15
2018-02-02T02:53:07.836Z,17.08
2018-02-02T02:55:34.864Z,13.68
2018-02-02T02:58:01.971Z,17.98
2018-02-02T03:00:28.342Z,12.18
2018-02-02T03:02:54.706Z,19.15
2018-02-02T03:05:21.050Z,18.77
2018-02-02T03:07:47.367Z,16.65
2018-02-02T03:10:13.704Z,17.67
2018-02-02T03:12:40.026Z,19.70
2018-02-02T03:15:06.325Z,16.85
2018-02-02T03:17:32.592Z,15.93
2018-02-02T03:19:58.904Z,15.02
2018-02-02T03:22:25.964Z,16.62
2018-02-02T03:24:53.040Z,16.85
2018-02-02T03:27:19.410Z,17.55
2018-02-02T03:29:45.736Z,17.58
2018-02-02T03:32:12.028Z,18.70
2018-02-02T03:34:39.225Z,15.40
2018-02-02T03:37:05.559Z,15.30
2018-02-02T03:39:32.734Z,14.63
2018-02-02T03:41:59.830Z,13.10
2018-02-02T03:44:26.865Z,14.32
2018-02-02T03:46:53.188Z,12.82
2018-02-02T03:49:19.550Z,14.35
2018-02-02T03:51:45.848Z,12.77
2018-02-02T03:54:12.150Z,14.82
2018-02-02T03:56:40.507Z,21.37
2018-02-02T03:59:06.824Z,17.52
2018-02-02T04:01:34.044Z,15.98
2018-02-02T04:04:01.745Z,17.17
2018-02-02T04:06:28.041Z,15.60
2018-02-02T04:08:54.394Z,16.27
2018-02-02T04:11:21.422Z,19.40
2018-02-02T04:13:47.775Z,18.08
2018-02-02T04:16:14.124Z,18.35
2018-02-02T04:18:40.443Z,16.70
2018-02-02T04:21:07.065Z,13.90
2018-02-02T04:23:33.739Z,18.25
2018-02-02T04:26:00.126Z,20.80
2018-02-02T04:28:26.790Z,15.68
2018-02-02T04:30:53.118Z,21.92
2018-02-02T04:33:19.389Z,13.85
2018-02-02T04:35:47.359Z,16.70
2018-02-02T04:38:14.495Z,19.60
2018-02-02T04:40:40.864Z,20.60
2018-02-02T04:43:07.317Z,16.90
2018-02-02T04:45:33.661Z,11.23
2018-02-02T04:48:00.611Z,17.92
2018-02-02T04:50:26.829Z,14.20
2018-02-02T04:52:53.049Z,13.85
2018-02-02T04:55:19.189Z,19.83
2018-02-02T04:57:45.399Z,13.05
2018-02-02T05:00:11.629Z,17.65
2018-02-02T05:02:37.811Z,20.30
2018-02-02T05:05:04.082Z,20.70
2018-02-02T05:07:30.309Z,20.20
2018-02-02T06:34:52.746Z,18.58
2018-02-02T06:37:18.990Z,15.85
2018-02-02T06:39:45.214Z,20.23
2018-02-02T06:42:11.454Z,14.87
2018-02-02T06:44:38.298Z,16.80
2018-02-02T06:47:05.497Z,20.05
2018-02-02T06:49:33.458Z,16.87
2018-02-02T06:52:00.442Z,24.12
2018-02-02T06:54:26.616Z,16.95
2018-02-02T06:56:52.810Z,19.02
2018-02-02T06:59:19.191Z,20.92
2018-02-02T07:01:45.398Z,26.20
2018-02-02T07:04:11.553Z,21.67
2018-02-02T07:06:37.760Z,20.12
2018-02-02T07:09:04.942Z,16.60
2018-02-02T07:11:31.495Z,18.50
2018-02-02T07:13:58.441Z,23.15
2018-02-02T07:16:24.650Z,18.90
2018-02-02T07:18:50.822Z,24.17
2018-02-02T07:21:17.942Z,19.40
2018-02-02T07:23:45.815Z,21.00
2018-02-02T07:26:12.769Z,18.80
2018-02-02T07:28:40.762Z,24.92
2018-02-02T07:31:07.553Z,22.40
2018-02-02T07:33:34.456Z,20.80
2018-02-02T07:36:00.629Z,21.33
2018-02-02T07:38:26.870Z,23.60
2018-02-02T07:40:53.771Z,22.27
2018-02-02T07:43:20.538Z,22.42
2018-02-02T07:45:46.752Z,19.70
2018-02-02T07:48:13.005Z,24.30
2018-02-02T07:50:39.181Z,21.37
2018-02-02T07:53:05.368Z,24.40
2018-02-02T07:55:32.315Z,17.30
2018-02-02T07:57:58.502Z,27.83
2018-02-02T08:00:24.702Z,25.62
2018-02-02T08:02:50.866Z,21.48
2018-02-02T08:05:17.070Z,22.70
2018-02-02T08:07:43.559Z,28.50
2018-02-02T08:10:10.515Z,32.93
2018-02-02T08:12:37.462Z,20.97
2018-02-02T08:15:04.407Z,17.73
2018-02-02T08:17:31.299Z,22.60
2018-02-02T08:19:57.455Z,23.50
2018-02-02T08:22:23.643Z,20.90
2018-02-02T08:24:49.804Z,19.97
2018-02-02T08:27:15.966Z,20.73
2018-02-02T08:29:42.891Z,17.90
2018-02-02T08:32:09.053Z,19.23
2018-02-02T08:34:35.292Z,16.30
2018-02-02T08:37:01.486Z,27.43
2018-02-02T08:39:28.427Z,19.90
2018-02-02T08:41:54.629Z,22.33
2018-02-02T08:44:20.854Z,17.93
2018-02-02T08:46:47.012Z,18.10
2018-02-02T08:49:14.614Z,20.53
2018-02-02T08:51:41.801Z,17.80
2018-02-02T08:54:07.969Z,16.37
2018-02-02T08:56:35.740Z,21.27
2018-02-02T08:59:02.662Z,15.40
2018-02-02T09:01:35.001Z,18.27
2018-02-02T09:04:01.168Z,19.43
2018-02-02T09:06:28.725Z,16.67
2018-02-02T09:08:56.484Z,16.90
2018-02-02T09:11:22.658Z,16.37
2018-02-02T09:13:48.852Z,13.67
2018-02-02T09:16:15.728Z,15.13
2018-02-02T09:18:41.911Z,16.73
2018-02-02T09:21:08.114Z,14.57
2018-02-02T09:23:34.281Z,11.93
2018-02-02T09:26:01.207Z,11.90
2018-02-02T09:28:27.382Z,9.90
2018-02-02T09:30:53.599Z,8.70
2018-02-02T09:33:20.013Z,11.90
2018-02-02T09:35:46.938Z,9.87
2018-02-02T09:38:13.149Z,13.40
2018-02-02T09:40:39.440Z,8.90
2018-02-02T09:43:05.637Z,8.20
2018-02-02T09:45:31.869Z,7.57
2018-02-02T09:47:58.809Z,10.63
2018-02-02T09:50:25.039Z,7.37
2018-02-02T09:52:51.209Z,14.40
2018-02-02T09:55:18.500Z,7.43
2018-02-02T09:57:45.122Z,8.50
2018-02-02T10:00:11.322Z,6.63
2018-02-02T10:02:37.551Z,8.53
2018-02-02T10:05:04.158Z,9.80
2018-02-02T10:07:30.342Z,7.67
2018-02-02T10:09:56.586Z,8.07
2018-02-02T10:12:22.747Z,8.67
2018-02-02T10:14:49.672Z,6.53
2018-02-02T10:17:15.872Z,8.13
2018-02-02T10:19:43.029Z,10.90
2018-02-02T10:22:09.559Z,8.77
2018-02-02T10:24:35.737Z,10.00
2018-02-02T10:27:02.718Z,10.80
2018-02-02T10:29:29.783Z,12.17
2018-02-02T10:31:56.366Z,9.43
2018-02-02T10:34:22.511Z,10.80
2018-02-02T10:36:48.696Z,7.67
2018-02-02T10:39:14.947Z,5.93
2018-02-02T10:41:42.220Z,7.77
2018-02-02T10:44:08.460Z,8.53
2018-02-02T10:56:19.679Z,8.20
2018-02-02T10:58:46.128Z,5.57
2018-02-02T11:01:18.327Z,6.30
2018-02-02T11:03:58.471Z,7.70
2018-02-02T11:06:24.655Z,5.20
2018-02-02T11:08:50.854Z,8.43
2018-02-02T11:11:17.030Z,7.43
2018-02-02T11:13:43.923Z,5.27
2018-02-02T11:16:10.137Z,7.57
2018-02-02T11:18:36.421Z,5.13
2018-02-02T11:21:02.624Z,7.77
2018-02-02T11:23:28.791Z,4.40
2018-02-02T11:25:55.793Z,5.70
2018-02-02T11:28:22.894Z,9.87
2018-02-02T11:30:49.863Z,7.87
2018-02-02T11:33:16.080Z,8.77
2018-02-02T11:35:43.227Z,8.23
2018-02-02T11:38:09.737Z,8.17
2018-02-02T11:40:35.923Z,10.97
2018-02-02T11:43:02.169Z,6.33
2018-02-02T11:45:28.367Z,11.63
2018-02-02T11:47:54.590Z,9.20
2018-02-02T11:50:20.769Z,8.87
2018-02-02T11:52:46.984Z,6.63
2018-02-02T11:55:13.691Z,10.63
2018-02-02T11:57:39.859Z,7.97
2018-02-02T12:00:06.001Z,8.87
2018-02-02T12:02:32.686Z,11.10
2018-02-02T12:04:59.609Z,11.00
2018-02-02T12:07:26.954Z,8.23
2018-02-02T12:09:53.845Z,11.30
2018-02-02T12:12:20.094Z,9.93
2018-02-02T12:14:46.289Z,15.73
2018-02-02T12:17:12.528Z,10.77
2018-02-02T12:19:39.829Z,10.57
2018-02-02T12:22:15.695Z,9.73
2018-02-02T12:24:48.737Z,9.60
2018-02-02T12:27:16.897Z,10.07
2018-02-02T12:29:49.745Z,12.98
2018-02-02T12:32:30.690Z,17.60
2018-02-02T12:34:56.900Z,11.10
2018-02-02T12:37:23.237Z,16.80
2018-02-02T12:39:49.513Z,13.10
2018-02-02T12:42:16.558Z,9.60
2018-02-02T12:44:43.620Z,8.10
2018-02-02T12:47:09.800Z,9.80
2018-02-02T12:49:36.955Z,19.27
2018-02-02T12:52:03.252Z,8.33
2018-02-02T12:54:30.393Z,9.40
2018-02-02T12:56:56.656Z,10.30
2018-02-02T12:59:23.799Z,12.47
2018-02-02T13:01:50.305Z,10.27
2018-02-02T13:04:18.721Z,10.73
2018-02-02T13:16:30.397Z,9.43
2018-02-02T13:18:57.290Z,8.57
2018-02-02T13:21:23.617Z,13.80
2018-02-02T13:23:50.898Z,9.33
2018-02-02T13:26:17.095Z,11.53
2018-02-02T13:28:43.338Z,11.97
2018-02-02T13:31:09.535Z,12.43
2018-02-02T13:33:36.626Z,10.23
2018-02-02T13:36:02.910Z,8.53
2018-02-02T13:38:29.860Z,11.67
2018-02-02T13:40:57.325Z,17.13
2018-02-02T13:43:24.300Z,7.63
2018-02-02T13:45:52.195Z,13.50
2018-02-02T13:48:18.405Z,14.90
2018-02-02T13:50:45.755Z,8.50
2018-02-02T13:53:11.975Z,9.33
2018-02-02T13:55:38.189Z,10.70
2018-02-02T13:58:07.283Z,11.23
2018-02-02T14:00:34.664Z,7.90
2018-02-02T14:03:00.994Z,8.70
2018-02-02T14:05:29.854Z,8.90
2018-02-02T14:07:56.765Z,9.70
2018-02-02T14:10:24.694Z,11.27
2018-02-02T14:12:54.575Z,10.93
2018-02-02T14:15:21.869Z,7.93
2018-02-02T14:17:48.313Z,7.07
2018-02-02T14:20:14.501Z,9.63
2018-02-02T14:22:42.275Z,7.50
2018-02-02T14:25:08.499Z,17.07
2018-02-02T14:27:35.424Z,7.40
2018-02-02T14:30:01.650Z,5.70
2018-02-02T14:32:28.637Z,5.70
2018-02-02T14:34:54.857Z,8.03
2018-02-02T14:37:21.022Z,7.80
2018-02-02T14:39:48.137Z,9.10
2018-02-02T14:42:14.329Z,7.20
2018-02-02T14:44:40.518Z,6.83
2018-02-02T14:47:07.888Z,11.63
2018-02-02T14:49:35.698Z,9.20
2018-02-02T14:52:02.728Z,13.90
2018-02-02T14:54:28.962Z,7.10
2018-02-02T14:56:55.948Z,6.37
2018-02-02T14:59:23.406Z,8.10
2018-02-02T15:01:50.010Z,5.77
2018-02-02T15:04:17.018Z,9.83
2018-02-02T15:06:43.209Z,8.60
2018-02-02T15:09:09.685Z,6.47
2018-02-02T15:11:35.878Z,6.83
2018-02-02T15:14:04.858Z,8.23
2018-02-02T15:16:31.870Z,6.20
2018-02-02T15:18:59.018Z,7.00
2018-02-02T15:21:27.351Z,11.70
2018-02-02T15:23:53.636Z,6.47
2018-02-02T15:26:20.676Z,6.60
2018-02-02T15:28:46.920Z,5.03
2018-02-02T15:31:15.465Z,6.90
2018-02-02T15:33:41.762Z,5.93
2018-02-02T15:36:10.082Z,10.50
2018-02-02T15:38:36.314Z,4.57
2018-02-02T15:41:03.541Z,6.87
2018-02-02T15:43:30.632Z,6.47
2018-02-02T15:45:58.253Z,8.80
2018-02-02T15:48:24.535Z,8.00
2018-02-02T15:50:50.757Z,7.57
2018-02-02T15:53:16.946Z,7.27
2018-02-02T15:55:47.154Z,7.53
2018-02-02T15:58:16.309Z,5.97
2018-02-02T16:00:42.909Z,6.40
2018-02-02T16:03:09.129Z,4.10
2018-02-02T16:05:35.306Z,5.20
2018-02-02T16:08:01.503Z,7.00
2018-02-02T16:10:27.686Z,4.57
2018-02-02T16:12:53.929Z,3.50
2018-02-02T16:15:20.153Z,4.37
2018-02-02T16:17:46.356Z,4.43
2018-02-02T16:20:13.283Z,3.47
2018-02-02T16:22:39.459Z,5.10
2018-02-02T16:25:05.639Z,3.67
2018-02-02T16:27:31.859Z,5.57
2018-02-02T16:29:58.063Z,6.23
2018-02-02T16:32:24.269Z,10.07
2018-02-02T16:34:50.528Z,6.57
2018-02-02T16:37:16.732Z,4.70
2018-02-02T16:39:43.469Z,7.57
2018-02-02T16:42:09.811Z,6.40
2018-02-02T16:44:36.020Z,7.57
2018-02-02T16:47:03.070Z,6.17
2018-02-02T16:49:29.264Z,7.80
2018-02-02T16:51:55.477Z,10.53
2018-02-02T16:54:22.031Z,8.10
2018-02-02T16:56:48.247Z,9.43
2018-02-02T16:59:19.657Z,6.60
2018-02-02T17:01:46.782Z,7.27
2018-02-02T17:04:14.379Z,6.30
2018-02-02T17:06:41.322Z,6.90
2018-02-02T17:09:07.549Z,7.77
2018-02-02T17:11:33.729Z,8.57
2018-02-02T17:13:59.900Z,6.90
2018-02-02T17:16:26.088Z,8.07
2018-02-02T17:18:52.296Z,8.73
2018-02-02T17:21:18.474Z,9.53
2018-02-02T17:23:44.637Z,7.10
2018-02-02T17:26:10.835Z,6.80
2018-02-02T17:28:37.039Z,8.60
2018-02-02T17:31:03.968Z,7.30
2018-02-02T17:33:30.910Z,8.70
2018-02-02T17:35:57.110Z,7.27
2018-02-02T17:38:23.341Z,7.80
2018-02-02T17:40:49.531Z,7.73
2018-02-02T17:43:15.768Z,9.50
2018-02-02T17:45:42.072Z,8.03
2018-02-02T17:48:08.981Z,8.93
2018-02-02T17:50:35.212Z,9.80
2018-02-02T17:53:01.401Z,7.30
2018-02-02T17:55:27.596Z,9.67
2018-02-02T17:57:54.533Z,10.83
2018-02-02T18:00:21.325Z,8.13
2018-02-02T18:02:51.296Z,5.53
2018-02-02T18:05:18.297Z,12.37
2018-02-02T18:07:44.526Z,8.20
2018-02-02T18:10:10.712Z,9.13
2018-02-02T18:12:37.651Z,11.97
2018-02-02T18:15:03.888Z,10.90
2018-02-02T18:17:30.822Z,9.67
2018-02-02T18:19:57.055Z,9.60
2018-02-02T18:22:23.985Z,9.73
2018-02-02T18:24:50.522Z,10.30
2018-02-02T18:27:16.783Z,10.20
2018-02-02T18:29:44.809Z,9.50
2018-02-02T18:32:11.097Z,7.10
2018-02-02T18:34:37.282Z,8.30
2018-02-02T18:37:03.519Z,7.83
2018-02-02T18:39:30.969Z,6.63
2018-02-02T18:41:57.195Z,11.70
2018-02-02T18:44:24.585Z,9.80
2018-02-02T18:46:51.513Z,7.00
2018-02-02T18:49:17.669Z,8.20
2018-02-02T18:51:44.131Z,7.80
2018-02-02T18:54:10.354Z,14.10
2018-02-02T18:56:36.531Z,11.03
2018-02-02T18:59:03.020Z,13.10
2018-02-02T19:01:29.320Z,11.07
2018-02-02T19:03:56.285Z,13.63
2018-02-02T19:06:22.765Z,10.77
2018-02-02T19:08:49.173Z,10.13
2018-02-02T19:11:15.344Z,12.87
2018-02-02T19:13:43.975Z,9.17
2018-02-02T19:16:10.393Z,14.83
2018-02-02T19:18:36.559Z,10.20
2018-02-02T19:21:02.886Z,10.37
2018-02-02T19:23:29.122Z,14.80
2018-02-02T19:25:55.332Z,14.80
2018-02-02T19:28:21.540Z,8.60
2018-02-02T19:30:48.602Z,13.80
2018-02-02T19:33:14.766Z,9.70
2018-02-02T19:35:40.970Z,8.17
2018-02-02T19:38:07.204Z,8.23
2018-02-02T19:40:33.440Z,9.33
2018-02-02T19:43:01.400Z,7.40
2018-02-02T19:45:28.040Z,7.60
2018-02-02T19:47:54.265Z,10.37
2018-02-02T19:50:20.840Z,6.90
2018-02-02T19:52:47.959Z,10.63
2018-02-02T19:55:14.970Z,8.90
2018-02-02T19:57:42.990Z,12.33
2018-02-02T20:00:09.206Z,9.67
2018-02-02T20:02:36.108Z,12.70
2018-02-02T20:05:03.193Z,11.77
2018-02-02T20:07:29.387Z,10.30
2018-02-02T20:09:55.586Z,13.53
2018-02-02T20:12:22.624Z,8.40
2018-02-02T20:14:48.813Z,6.30
2018-02-02T20:17:15.021Z,9.80
2018-02-02T20:19:41.233Z,8.93
2018-02-02T20:22:08.329Z,8.57
2018-02-02T20:24:36.364Z,9.43
2018-02-02T20:27:02.622Z,7.43
2018-02-02T20:29:29.121Z,5.77
2018-02-02T20:32:10.993Z,9.47
2018-02-02T20:34:37.166Z,10.17
2018-02-02T20:37:03.454Z,14.20
2018-02-02T20:39:29.670Z,7.63
2018-02-02T20:41:57.448Z,6.20
2018-02-02T20:44:23.596Z,4.67
2018-02-02T20:46:50.681Z,6.40
2018-02-02T20:49:17.556Z,5.90
2018-02-02T20:51:44.120Z,7.20
2018-02-02T20:54:11.050Z,6.40
2018-02-02T20:56:37.263Z,5.13
2018-02-02T20:59:03.447Z,5.20
2018-02-02T21:01:29.752Z,5.10
2018-02-02T21:03:57.711Z,8.97
2018-02-02T21:06:23.941Z,8.10
2018-02-02T21:08:50.160Z,6.57
2018-02-02T21:11:16.335Z,8.33
2018-02-02T21:13:43.382Z,7.70
2018-02-02T21:16:09.592Z,8.20
2018-02-02T21:18:36.549Z,9.20
2018-02-02T21:21:02.797Z,10.93
2018-02-02T21:23:29.039Z,7.63
2018-02-02T21:25:55.279Z,8.23
2018-02-02T21:28:21.532Z,10.97
2018-02-02T21:30:48.652Z,9.37
2018-02-02T21:33:14.901Z,9.90
2018-02-02T21:35:41.127Z,10.43
2018-02-02T21:47:52.410Z,12.10
2018-02-02T21:50:19.911Z,12.00
2018-02-02T21:52:46.126Z,19.77
2018-02-02T21:55:12.368Z,11.20
2018-02-02T21:57:38.587Z,9.27
2018-02-02T22:00:06.747Z,12.97
2018-02-02T22:02:33.004Z,10.15
2018-02-02T22:05:00.021Z,11.63
2018-02-02T22:07:26.212Z,9.20
2018-02-02T22:09:52.762Z,9.25
2018-02-02T22:12:19.279Z,9.10
2018-02-02T22:14:45.528Z,16.20
2018-02-02T22:17:11.710Z,13.33
2018-02-02T22:19:37.924Z,12.73
2018-02-02T22:22:04.139Z,13.13
2018-02-02T22:24:30.358Z,14.20
2018-02-02T22:26:56.542Z,10.82
2018-02-02T22:29:22.841Z,11.12
2018-02-02T22:31:49.051Z,9.20
2018-02-02T22:34:15.269Z,10.83
2018-02-02T22:36:42.214Z,9.73
2018-02-02T22:39:09.197Z,10.13
2018-02-02T22:41:35.412Z,13.73
2018-02-02T22:44:01.602Z,10.23
2018-02-02T22:46:27.840Z,8.90
2018-02-02T22:48:54.857Z,12.60
2018-02-02T22:51:21.126Z,10.43
2018-02-02T22:53:48.730Z,10.40
2018-02-02T22:56:14.983Z,10.57
2018-02-02T22:58:41.200Z,9.77
2018-02-02T23:01:07.398Z,12.30
2018-02-02T23:03:34.970Z,13.03
2018-02-02T23:06:02.574Z,10.30
2018-02-02T23:08:28.886Z,9.50
2018-02-02T23:10:55.981Z,13.10
2018-02-02T23:13:22.200Z,8.60
2018-02-02T23:15:48.367Z,10.00
2018-02-02T23:18:14.582Z,11.20
2018-02-02T23:30:30.803Z,12.43
2018-02-02T23:32:57.367Z,11.52
2018-02-02T23:35:24.283Z,11.93
2018-02-02T23:37:51.350Z,12.30
2018-02-02T23:40:19.232Z,13.73
2018-02-02T23:42:48.223Z,11.10
2018-02-02T23:55:06.641Z,16.95
2018-02-02T23:57:34.358Z,19.27
